createdAt,value
2023-05-23T00:01:27.853Z,15.99
2023-05-23T00:11:28.965Z,15.87
2023-05-23T00:21:30.285Z,15.89
2023-05-23T00:31:31.093Z,16.12
2023-05-23T00:41:31.605Z,16.39
2023-05-23T00:51:31.390Z,16.63
2023-05-23T01:01:31.654Z,16.81
2023-05-23T01:11:31.367Z,16.94
2023-05-23T01:21:31.388Z,17.02
2023-05-23T01:31:31.401Z,17.03
2023-05-23T01:41:33.001Z,17.01
2023-05-23T01:51:33.811Z,16.97
2023-05-23T02:01:33.662Z,16.93
2023-05-23T02:11:33.430Z,16.90
2023-05-23T02:21:35.241Z,16.90
2023-05-23T02:31:35.532Z,16.91
2023-05-23T02:41:37.081Z,16.92
2023-05-23T02:51:37.665Z,16.92
2023-05-23T03:01:37.551Z,16.92
2023-05-23T03:11:37.701Z,16.92
2023-05-23T03:21:37.676Z,16.90
2023-05-23T03:31:37.778Z,16.88
2023-05-23T03:41:37.914Z,16.85
2023-05-23T03:51:39.119Z,16.81
2023-05-23T04:01:40.007Z,16.78
2023-05-23T04:11:39.875Z,16.78
2023-05-23T04:21:44.028Z,16.75
2023-05-23T04:31:46.386Z,16.66
2023-05-23T04:42:00.361Z,16.52
2023-05-23T04:52:02.568Z,16.46
2023-05-23T05:02:02.993Z,16.53
2023-05-23T05:12:03.302Z,16.69
2023-05-23T05:22:04.485Z,16.89
2023-05-23T05:32:04.864Z,17.10
2023-05-23T05:42:05.664Z,17.27
2023-05-23T05:52:07.908Z,17.30
2023-05-23T06:02:09.076Z,17.25
2023-05-23T06:12:09.809Z,17.16
2023-05-23T06:22:09.847Z,17.11
2023-05-23T06:32:10.002Z,17.25
2023-05-23T06:42:11.672Z,17.45
2023-05-23T06:52:12.000Z,17.59
2023-05-23T07:02:12.236Z,17.88
2023-05-23T07:12:13.610Z,18.18
2023-05-23T07:22:15.223Z,18.25
2023-05-23T07:32:14.909Z,18.11
2023-05-23T07:42:15.066Z,17.92
2023-05-23T07:52:15.663Z,17.95
2023-05-23T08:02:16.423Z,18.01
2023-05-23T08:12:17.714Z,17.85
2023-05-23T08:22:18.238Z,17.65
2023-05-23T08:32:18.295Z,17.75
2023-05-23T08:42:18.273Z,18.11
2023-05-23T08:52:19.067Z,18.31
2023-05-23T09:02:19.336Z,18.36
2023-05-23T09:12:21.657Z,18.35
2023-05-23T09:22:23.888Z,18.34
2023-05-23T09:32:24.171Z,18.23
2023-05-23T09:42:24.141Z,17.98
2023-05-23T09:52:24.287Z,17.79
2023-05-23T10:02:24.065Z,18.13
2023-05-23T10:12:24.063Z,18.57
2023-05-23T10:22:24.226Z,19.34
2023-05-23T10:32:24.192Z,20.55
2023-05-23T10:42:24.799Z,20.37
2023-05-23T10:52:26.415Z,19.68
2023-05-23T11:02:26.204Z,19.09
2023-05-23T11:12:26.131Z,18.68
2023-05-23T11:22:26.255Z,19.24
2023-05-23T11:32:26.276Z,20.54
2023-05-23T11:42:26.329Z,21.96
2023-05-23T11:52:26.929Z,22.80
2023-05-23T12:02:27.353Z,22.82
2023-05-23T12:12:28.318Z,22.95
2023-05-23T12:22:29.293Z,23.23
2023-05-23T12:32:29.328Z,23.39
2023-05-23T12:42:30.649Z,23.63
2023-05-23T12:52:31.297Z,23.81
2023-05-23T13:02:31.379Z,23.91
2023-05-23T13:12:32.606Z,23.71
2023-05-23T13:22:32.904Z,23.81
2023-05-23T13:32:33.423Z,23.81
2023-05-23T13:42:33.453Z,23.59
2023-05-23T13:52:48.265Z,23.48
2023-05-23T14:02:47.481Z,23.48
2023-05-23T14:12:47.708Z,23.55
2023-05-23T14:22:47.436Z,23.56
2023-05-23T14:32:47.518Z,23.37
2023-05-23T14:42:47.584Z,23.30
2023-05-23T14:52:47.495Z,23.21
2023-05-23T15:02:47.627Z,23.24
2023-05-23T15:12:47.638Z,23.17
2023-05-23T15:22:47.602Z,22.62
2023-05-23T15:32:47.640Z,22.01
2023-05-23T15:42:47.608Z,21.60
2023-05-23T15:52:47.586Z,21.35
2023-05-23T16:02:47.629Z,20.72
2023-05-23T16:12:47.603Z,20.17
2023-05-23T16:22:47.807Z,19.86
2023-05-23T16:32:47.675Z,19.59
2023-05-23T16:42:47.650Z,19.42
2023-05-23T16:52:47.767Z,19.39
2023-05-23T17:02:47.769Z,19.57
2023-05-23T17:12:47.692Z,19.58
2023-05-23T17:22:47.942Z,19.33
2023-05-23T17:32:47.752Z,19.02
2023-05-23T17:42:47.746Z,18.70
2023-05-23T17:52:47.760Z,18.30
2023-05-23T18:02:47.812Z,17.79
2023-05-23T18:12:47.776Z,17.28
2023-05-23T18:22:47.792Z,17.04
2023-05-23T18:32:47.949Z,16.99
2023-05-23T18:42:48.004Z,16.79
2023-05-23T18:52:47.808Z,16.33
2023-05-23T19:02:48.244Z,15.78
2023-05-23T19:12:48.843Z,15.26
2023-05-23T19:22:52.248Z,14.81
2023-05-23T19:32:50.933Z,14.35
2023-05-23T19:42:51.181Z,13.94
2023-05-23T19:52:50.938Z,13.59
2023-05-23T20:02:51.014Z,13.28
2023-05-23T20:12:51.020Z,12.99
2023-05-23T20:22:51.294Z,12.71
2023-05-23T20:32:53.231Z,12.45
2023-05-23T20:42:53.074Z,12.23
2023-05-23T20:52:53.553Z,12.08
2023-05-23T21:02:54.170Z,12.00
2023-05-23T21:12:53.988Z,11.93
2023-05-23T21:22:54.052Z,11.85
2023-05-23T21:32:54.094Z,11.76
2023-05-23T21:42:54.046Z,11.64
2023-05-23T21:52:54.125Z,11.50
2023-05-23T22:02:54.175Z,11.35
2023-05-23T22:12:54.048Z,11.19
2023-05-23T22:22:54.085Z,11.01
2023-05-23T22:32:54.191Z,10.82
2023-05-23T22:42:54.159Z,10.60
2023-05-23T22:52:54.130Z,10.37
2023-05-23T23:02:54.243Z,10.15
2023-05-23T23:12:54.157Z,9.94
2023-05-23T23:22:54.195Z,9.72
2023-05-23T23:32:54.221Z,9.51
2023-05-23T23:42:54.191Z,9.32
2023-05-23T23:52:54.192Z,9.11
